Time;durP1;ratioP1;P1;durP2;ratioP2;P2;SDS_P1;SDS_P2;PMS_P1;PMS_P2;Temp;Humidity;BMP_temperature;BMP_pressure;BME280_temperature;BME280_humidity;BME280_pressure;Samples;Min_cycle;Max_cycle;Signal;HPM_P1;HPM_P2
2022/12/20 00:02:30;;;;;;;;;;;;;;;;;;4392937;32;65176;-73
2022/12/20 00:05:16;;;;;;;;;;;;;;;;;;4391938;32;67091;-73
2022/12/20 00:08:02;;;;;;;;;;;;;;;;;;4392381;32;59797;-73
2022/12/20 00:10:49;;;;;;;;;;;;;;;;;;4370869;32;70097;-72
2022/12/20 00:13:35;;;;;;;;;;;;;;;;;;4379047;32;66046;-74
2022/12/20 00:16:22;;;;;;;;;;;;;;;;;;4378604;32;68585;-72
2022/12/20 00:19:09;;;;;;;;;;;;;;;;;;4367505;32;60557;-73
2022/12/20 00:21:56;;;;;;;;;;;;;;;;;;4369251;32;70559;-73
2022/12/20 00:24:42;;;;;;;;;;;;;;;;;;4390728;32;68877;-72
2022/12/20 00:27:28;;;;;;;;;;;;;;;;;;4366844;32;68579;-72
2022/12/20 00:30:15;;;;;;;;;;;;;;;;;;4402720;32;71101;-74
2022/12/20 00:33:01;;;;;;;;;;;;;;;;;;4390651;32;65965;-73
2022/12/20 00:35:47;;;;;;;;;;;;;;;;;;4403499;32;67718;-72
2022/12/20 00:38:34;;;;;;;;;;;;;;;;;;4380696;32;67658;-73
2022/12/20 00:41:20;;;;;;;;;;;;;;;;;;4356784;32;72063;-74
2022/12/20 00:44:07;;;;;;;;;;;;;;;;;;4390296;32;65386;-74
2022/12/20 00:46:53;;;;;;;;;;;;;;;;;;4371336;32;67645;-72
2022/12/20 00:49:40;;;;;;;;;;;;;;;;;;4404045;32;59884;-72
2022/12/20 00:52:26;;;;;;;;;;;;;;;;;;4367797;32;70568;-73
2022/12/20 00:55:12;;;;;;;;;;;;;;;;;;4381242;32;69377;-73
2022/12/20 00:57:58;;;;;;;;;;;;;;;;;;4380396;32;67974;-72
2022/12/20 01:00:45;;;;;;;;;;;;;;;;;;4376801;32;58893;-72
2022/12/20 01:03:31;;;;;;;;;;;;;;;;;;4400054;32;70192;-72
2022/12/20 01:06:18;;;;;;;;;;;;;;;;;;4387772;32;69123;-73
2022/12/20 01:09:04;;;;;;;;;;;;;;;;;;4375023;32;68375;-74
2022/12/20 01:11:50;;;;;;;;;;;;;;;;;;4400062;32;71658;-72
2022/12/20 01:14:37;;;;;;;;;;;;;;;;;;4387917;32;66310;-73
2022/12/20 01:17:23;;;;;;;;;;;;;;;;;;4387899;32;67455;-73
2022/12/20 01:20:10;;;;;;;;;;;;;;;;;;4377269;32;59876;-72
2022/12/20 01:22:56;;;;;;;;;;;;;;;;;;4399465;32;70419;-73
2022/12/20 01:25:43;;;;;;;;;;;;;;;;;;4384600;32;66911;-73
2022/12/20 01:28:30;;;;;;;;;;;;;;;;;;4376833;32;67023;-73
2022/12/20 01:31:17;;;;;;;;;;;;;;;;;;4371794;32;59692;-73
2022/12/20 01:34:03;;;;;;;;;;;;;;;;;;4382818;32;69253;-74
2022/12/20 01:36:50;;;;;;;;;;;;;;;;;;4384490;32;69818;-74
2022/12/20 01:39:37;;;;;;;;;;;;;;;;;;4371329;32;67389;-73
2022/12/20 01:42:23;;;;;;;;;;;;;;;;;;4362031;32;70911;-73
2022/12/20 01:45:12;;;;;;;;;;;;;;;;;;4383096;32;65922;-73
2022/12/20 01:47:58;;;;;;;;;;;;;;;;;;4361251;32;68035;-73
2022/12/20 01:50:45;;;;;;;;;;;;;;;;;;4382721;32;67823;-72
2022/12/20 01:53:31;;;;;;;;;;;;;;;;;;4382449;32;71739;-73
2022/12/20 01:56:18;;;;;;;;;;;;;;;;;;4372054;32;66227;-73
2022/12/20 01:59:04;;;;;;;;;;;;;;;;;;4382646;32;68104;-73
2022/12/20 02:01:51;;;;;;;;;;;;;;;;;;4382630;32;59547;-72
2022/12/20 02:04:38;;;;;;;;;;;;;;;;;;4382671;32;70178;-72
2022/12/20 02:07:25;;;;;;;;;;;;;;;;;;4381728;32;70195;-72
2022/12/20 02:10:12;;;;;;;;;;;;;;;;;;4372146;32;67203;-72
2022/12/20 02:13:01;;;;;;;;;;;;;;;;;;4350429;32;71671;-73
2022/12/20 02:15:47;;;;;;;;;;;;;;;;;;4361132;32;69314;-72
2022/12/20 02:18:40;;;;;;;;;;;;;;;;;;4381827;32;69741;-72
2022/12/20 02:21:39;;;;;;;;;;;;;;;;;;4383507;32;67938;-72
2022/12/20 02:24:34;;;;;;;;;;;;;;;;;;4382096;32;71996;-72
2022/12/20 02:27:22;;;;;;;;;;;;;;;;;;4371784;32;65323;-72
2022/12/20 02:30:10;;;;;;;;;;;;;;;;;;4383540;32;66387;-73
2022/12/20 02:32:58;;;;;;;;;;;;;;;;;;4396394;32;60062;-73
2022/12/20 02:35:45;;;;;;;;;;;;;;;;;;4386866;32;69997;-73
2022/12/20 02:38:36;;;;;;;;;;;;;;;;;;4376376;32;69507;-73
2022/12/20 02:41:29;;;;;;;;;;;;;;;;;;4386969;32;67012;-73
2022/12/20 02:47:22;;;;;;;;;;;;;;;;;;4377975;32;69060;-72
2022/12/20 02:50:09;;;;;;;;;;;;;;;;;;4386862;32;69195;-73
2022/12/20 02:52:55;;;;;;;;;;;;;;;;;;4386414;32;66885;-72
2022/12/20 02:55:44;;;;;;;;;;;;;;;;;;4373312;32;72851;-72
2022/12/20 02:58:35;;;;;;;;;;;;;;;;;;4376232;32;65357;-73
2022/12/20 03:01:26;;;;;;;;;;;;;;;;;;4386502;32;67474;-73
2022/12/20 03:04:13;;;;;;;;;;;;;;;;;;4362742;32;59326;-72
2022/12/20 03:07:03;;;;;;;;;;;;;;;;;;4386537;32;71559;-73
2022/12/20 03:09:49;;;;;;;;;;;;;;;;;;4375788;32;65054;-73
2022/12/20 03:12:36;;;;;;;;;;;;;;;;;;4386399;32;67332;-73
2022/12/20 03:15:22;;;;;;;;;;;;;;;;;;4386670;32;58946;-73
2022/12/20 03:18:09;;;;;;;;;;;;;;;;;;4386598;32;69905;-72
2022/12/20 03:20:55;;;;;;;;;;;;;;;;;;4378236;32;68873;-72
2022/12/20 03:23:42;;;;;;;;;;;;;;;;;;4378272;32;67726;-72
2022/12/20 03:26:28;;;;;;;;;;;;;;;;;;4375887;32;72534;-73
2022/12/20 03:29:15;;;;;;;;;;;;;;;;;;4378151;32;70273;-72
2022/12/20 03:32:01;;;;;;;;;;;;;;;;;;4377807;32;69492;-72
2022/12/20 03:34:48;;;;;;;;;;;;;;;;;;4400729;32;67840;-73
2022/12/20 03:37:35;;;;;;;;;;;;;;;;;;4400544;32;72113;-73
2022/12/20 03:40:23;;;;;;;;;;;;;;;;;;4378323;32;65865;-72
2022/12/20 03:43:08;;;;;;;;;;;;;;;;;;4400640;32;67985;-71
2022/12/20 03:45:55;;;;;;;;;;;;;;;;;;4375589;32;60157;-72
2022/12/20 03:48:42;;;;;;;;;;;;;;;;;;4400713;32;70124;-72
2022/12/20 03:51:28;;;;;;;;;;;;;;;;;;4388601;32;68388;-72
2022/12/20 03:54:15;;;;;;;;;;;;;;;;;;4377762;32;67103;-72
2022/12/20 03:57:22;;;;;;;;;;;;;;;;;;3847947;37;43055;-73
2022/12/20 04:00:09;;;;;;;;;;;;;;;;;;4399967;32;59942;-72
2022/12/20 04:03:00;;;;;;;;;;;;;;;;;;4379114;32;69905;-71
2022/12/20 04:05:48;;;;;;;;;;;;;;;;;;4389269;32;69171;-72
2022/12/20 04:08:34;;;;;;;;;;;;;;;;;;4386261;32;68220;-72
2022/12/20 04:11:21;;;;;;;;;;;;;;;;;;4411576;32;70910;-73
2022/12/20 04:14:07;;;;;;;;;;;;;;;;;;4399654;32;65310;-72
2022/12/20 04:16:54;;;;;;;;;;;;;;;;;;4399236;32;67520;-72
2022/12/20 04:19:41;;;;;;;;;;;;;;;;;;4386308;32;60332;-72
2022/12/20 04:22:28;;;;;;;;;;;;;;;;;;4411244;32;72020;-72
2022/12/20 04:25:15;;;;;;;;;;;;;;;;;;4411137;32;65325;-72
2022/12/20 04:28:02;;;;;;;;;;;;;;;;;;4388750;32;67577;-72
2022/12/20 04:30:49;;;;;;;;;;;;;;;;;;4399552;32;59665;-72
2022/12/20 04:33:37;;;;;;;;;;;;;;;;;;4396156;32;71418;-73
2022/12/20 04:36:24;;;;;;;;;;;;;;;;;;4399169;32;69655;-73
2022/12/20 04:39:10;;;;;;;;;;;;;;;;;;4399218;32;67752;-72
2022/12/20 04:41:57;;;;;;;;;;;;;;;;;;4411433;32;70941;-72
2022/12/20 04:44:44;;;;;;;;;;;;;;;;;;4400055;32;66396;-74
2022/12/20 04:47:30;;;;;;;;;;;;;;;;;;4411288;32;69328;-72
2022/12/20 04:50:18;;;;;;;;;;;;;;;;;;4396490;32;67586;-73
2022/12/20 04:56:10;;;;;;;;;;;;;;;;;;4376399;32;65818;-73
2022/12/20 04:58:57;;;;;;;;;;;;;;;;;;4388994;32;67541;-73
2022/12/20 05:01:44;;;;;;;;;;;;;;;;;;4412181;32;59008;-73
2022/12/20 05:04:33;;;;;;;;;;;;;;;;;;4389062;32;70135;-72
2022/12/20 05:07:20;;;;;;;;;;;;;;;;;;4394022;32;68402;-72
2022/12/20 05:10:07;;;;;;;;;;;;;;;;;;4388765;32;68095;-72
2022/12/20 05:12:54;;;;;;;;;;;;;;;;;;4375306;32;60665;-72
2022/12/20 05:15:41;;;;;;;;;;;;;;;;;;4364776;32;71251;-73
2022/12/20 05:18:27;;;;;;;;;;;;;;;;;;4377893;32;69397;-74
2022/12/20 05:27:24;;;;;;;;;;;;;;;;;;4379737;32;64995;-67
2022/12/20 05:30:11;;;;;;;;;;;;;;;;;;4388284;32;67290;-66
2022/12/20 05:32:57;;;;;;;;;;;;;;;;;;4388433;32;58751;-69
2022/12/20 05:35:44;;;;;;;;;;;;;;;;;;4366965;32;70203;-69
2022/12/20 05:38:31;;;;;;;;;;;;;;;;;;4400444;32;65293;-72
2022/12/20 05:41:18;;;;;;;;;;;;;;;;;;4400242;32;66702;-69
2022/12/20 05:44:05;;;;;;;;;;;;;;;;;;4377662;32;59643;-69
2022/12/20 05:46:52;;;;;;;;;;;;;;;;;;4377831;32;70333;-69
2022/12/20 05:49:40;;;;;;;;;;;;;;;;;;4363902;32;69074;-68
2022/12/20 05:52:26;;;;;;;;;;;;;;;;;;4387967;32;67862;-70
2022/12/20 05:55:13;;;;;;;;;;;;;;;;;;4374222;32;70660;-69
2022/12/20 05:57:59;;;;;;;;;;;;;;;;;;4377258;32;66010;-70
2022/12/20 06:00:47;;;;;;;;;;;;;;;;;;4388079;32;67650;-71
2022/12/20 06:03:33;;;;;;;;;;;;;;;;;;4387889;32;67794;-74
2022/12/20 06:06:21;;;;;;;;;;;;;;;;;;4399734;32;71704;-74
2022/12/20 06:09:05;;;;;;;;;;;;;;;;;;3847732;37;43810;-72
2022/12/20 06:11:52;;;;;;;;;;;;;;;;;;4411876;32;58984;-73
2022/12/20 06:14:40;;;;;;;;;;;;;;;;;;4411846;32;69433;-72
2022/12/20 06:17:26;;;;;;;;;;;;;;;;;;4411843;32;68515;-73
2022/12/20 06:20:13;;;;;;;;;;;;;;;;;;4386346;32;66973;-70
2022/12/20 06:23:01;;;;;;;;;;;;;;;;;;4396982;32;72315;-70
2022/12/20 06:25:51;;;;;;;;;;;;;;;;;;4394808;32;65118;-70
2022/12/20 06:28:41;;;;;;;;;;;;;;;;;;4394984;32;66596;-70
2022/12/20 06:31:27;;;;;;;;;;;;;;;;;;4395165;32;58973;-71
2022/12/20 06:34:14;;;;;;;;;;;;;;;;;;4384023;32;71891;-70
2022/12/20 06:37:01;;;;;;;;;;;;;;;;;;4395088;32;66355;-70
2022/12/20 06:39:48;;;;;;;;;;;;;;;;;;4396081;32;68285;-69
2022/12/20 06:42:34;;;;;;;;;;;;;;;;;;4396174;32;59087;-70
2022/12/20 06:45:21;;;;;;;;;;;;;;;;;;4397429;32;69457;-70
2022/12/20 06:48:07;;;;;;;;;;;;;;;;;;4386215;32;69773;-71
2022/12/20 06:50:54;;;;;;;;;;;;;;;;;;4375162;32;67116;-73
2022/12/20 06:53:40;;;;;;;;;;;;;;;;;;4373721;32;72147;-72
2022/12/20 06:56:28;;;;;;;;;;;;;;;;;;4385244;32;66105;-73
2022/12/20 06:59:14;;;;;;;;;;;;;;;;;;4384595;32;69247;-67
2022/12/20 07:02:01;;;;;;;;;;;;;;;;;;4373417;32;66825;-69
2022/12/20 07:04:47;;;;;;;;;;;;;;;;;;4361635;32;73948;-70
2022/12/20 07:07:34;;;;;;;;;;;;;;;;;;4393887;32;65977;-69
2022/12/20 07:10:20;;;;;;;;;;;;;;;;;;4372222;32;67293;-70
2022/12/20 07:13:08;;;;;;;;;;;;;;;;;;4383110;32;60750;-71
2022/12/20 07:15:58;;;;;;;;;;;;;;;;;;4394173;32;69080;-70
2022/12/20 07:18:48;;;;;;;;;;;;;;;;;;4358444;32;70044;-70
2022/12/20 07:21:34;;;;;;;;;;;;;;;;;;4373772;32;67775;-71
2022/12/20 07:24:21;;;;;;;;;;;;;;;;;;4373596;32;59257;-71
2022/12/20 07:27:07;;;;;;;;;;;;;;;;;;4372637;32;70782;-71
2022/12/20 07:29:53;;;;;;;;;;;;;;;;;;4383926;32;68609;-72
2022/12/20 07:32:40;;;;;;;;;;;;;;;;;;4385025;32;67256;-72
2022/12/20 07:35:26;;;;;;;;;;;;;;;;;;4385026;32;71040;-70
2022/12/20 07:38:12;;;;;;;;;;;;;;;;;;4383769;32;66031;-70
2022/12/20 07:40:59;;;;;;;;;;;;;;;;;;4372282;32;68348;-72
2022/12/20 07:43:45;;;;;;;;;;;;;;;;;;4384149;32;59522;-70
2022/12/20 07:46:32;;;;;;;;;;;;;;;;;;4372985;32;70142;-69
2022/12/20 07:49:18;;;;;;;;;;;;;;;;;;4385018;32;66058;-70
2022/12/20 07:52:05;;;;;;;;;;;;;;;;;;4383907;32;67801;-70
2022/12/20 07:54:52;;;;;;;;;;;;;;;;;;4373194;32;59113;-71
2022/12/20 07:57:41;;;;;;;;;;;;;;;;;;4383144;32;69852;-70
2022/12/20 08:00:28;;;;;;;;;;;;;;;;;;4361725;32;67973;-71
2022/12/20 08:03:16;;;;;;;;;;;;;;;;;;4372868;32;67695;-70
2022/12/20 08:06:03;;;;;;;;;;;;;;;;;;4383115;32;71125;-68
2022/12/20 08:08:50;;;;;;;;;;;;;;;;;;4372507;32;65361;-68
2022/12/20 08:11:36;;;;;;;;;;;;;;;;;;4362490;32;67096;-71
2022/12/20 08:14:23;;;;;;;;;;;;;;;;;;4361435;32;68852;-71
2022/12/20 08:17:10;;;;;;;;;;;;;;;;;;4382690;32;71481;-73
2022/12/20 08:19:59;;;;;;;;;;;;;;;;;;4382864;32;66952;-75
2022/12/20 08:22:45;;;;;;;;;;;;;;;;;;4384468;32;67900;-75
2022/12/20 08:25:33;;;;;;;;;;;;;;;;;;4373079;32;59561;-75
2022/12/20 08:28:19;;;;;;;;;;;;;;;;;;4371793;32;70728;-71
2022/12/20 08:31:06;;;;;;;;;;;;;;;;;;4370977;32;70234;-75
2022/12/20 08:33:53;;;;;;;;;;;;;;;;;;4371792;32;68787;-74
2022/12/20 08:36:40;;;;;;;;;;;;;;;;;;4351319;32;59255;-75
2022/12/20 08:39:27;;;;;;;;;;;;;;;;;;4383072;32;70280;-74
2022/12/20 08:42:13;;;;;;;;;;;;;;;;;;4372751;32;69498;-73
2022/12/20 08:44:59;;;;;;;;;;;;;;;;;;4372256;32;67008;-73
2022/12/20 08:47:46;;;;;;;;;;;;;;;;;;4382666;32;71672;-73
2022/12/20 08:50:32;;;;;;;;;;;;;;;;;;4383126;32;66110;-72
2022/12/20 08:53:20;;;;;;;;;;;;;;;;;;4383000;32;67543;-73
2022/12/20 08:56:07;;;;;;;;;;;;;;;;;;4362029;32;59075;-73
2022/12/20 08:58:53;;;;;;;;;;;;;;;;;;4360774;32;71532;-74
2022/12/20 09:01:39;;;;;;;;;;;;;;;;;;4361048;32;66013;-73
2022/12/20 09:04:26;;;;;;;;;;;;;;;;;;4371529;32;66394;-74
2022/12/20 09:07:12;;;;;;;;;;;;;;;;;;4360725;32;59671;-74
2022/12/20 09:09:59;;;;;;;;;;;;;;;;;;4360652;32;71022;-74
2022/12/20 09:12:45;;;;;;;;;;;;;;;;;;4382543;32;69359;-75
2022/12/20 09:15:33;;;;;;;;;;;;;;;;;;4382434;32;67722;-74
2022/12/20 09:18:19;;;;;;;;;;;;;;;;;;4383774;32;71824;-75
2022/12/20 09:21:06;;;;;;;;;;;;;;;;;;4360697;32;65923;-74
2022/12/20 09:23:53;;;;;;;;;;;;;;;;;;4382746;32;67746;-73
2022/12/20 09:26:39;;;;;;;;;;;;;;;;;;4372031;32;66905;-75
2022/12/20 09:29:25;;;;;;;;;;;;;;;;;;4383612;32;71896;-75
2022/12/20 09:32:12;;;;;;;;;;;;;;;;;;4382778;32;65951;-74
2022/12/20 09:34:58;;;;;;;;;;;;;;;;;;4382555;32;66998;-75
2022/12/20 09:37:44;;;;;;;;;;;;;;;;;;4383861;32;59729;-74
2022/12/20 09:40:31;;;;;;;;;;;;;;;;;;4382407;32;70190;-74
2022/12/20 09:43:18;;;;;;;;;;;;;;;;;;4383433;32;69612;-74
2022/12/20 09:46:04;;;;;;;;;;;;;;;;;;4383416;32;68200;-74
2022/12/20 09:48:51;;;;;;;;;;;;;;;;;;4382056;32;72827;-74
2022/12/20 09:51:43;;;;;;;;;;;;;;;;;;4382274;32;70384;-74
2022/12/20 09:54:42;;;;;;;;;;;;;;;;;;4360425;32;70155;-74
2022/12/20 09:57:49;;;;;;;;;;;;;;;;;;4360514;32;65643;-74
2022/12/20 10:00:44;;;;;;;;;;;;;;;;;;4371259;32;71174;-73
2022/12/20 10:03:31;;;;;;;;;;;;;;;;;;4382152;32;65329;-74
2022/12/20 10:06:17;;;;;;;;;;;;;;;;;;4370566;32;68484;-75
2022/12/20 10:09:05;;;;;;;;;;;;;;;;;;4381411;32;60488;-74
2022/12/20 10:11:57;;;;;;;;;;;;;;;;;;4381487;32;69116;-74
2022/12/20 10:14:59;;;;;;;;;;;;;;;;;;4382258;32;69175;-74
2022/12/20 10:17:49;;;;;;;;;;;;;;;;;;4383863;32;67388;-75
2022/12/20 10:20:35;;;;;;;;;;;;;;;;;;4373625;32;59845;-75
2022/12/20 10:23:27;;;;;;;;;;;;;;;;;;4384329;32;70381;-74
2022/12/20 10:26:14;;;;;;;;;;;;;;;;;;4370652;32;66861;-74
2022/12/20 10:29:00;;;;;;;;;;;;;;;;;;4371119;32;67814;-75
2022/12/20 10:31:53;;;;;;;;;;;;;;;;;;4386429;32;70897;-75
2022/12/20 10:34:50;;;;;;;;;;;;;;;;;;4354441;32;64913;-75
2022/12/20 10:37:37;;;;;;;;;;;;;;;;;;4362903;32;67478;-75
2022/12/20 10:40:47;;;;;;;;;;;;;;;;;;4383307;32;58791;-74
2022/12/20 10:43:42;;;;;;;;;;;;;;;;;;4381709;32;71779;-74
2022/12/20 10:46:41;;;;;;;;;;;;;;;;;;4371355;32;66222;-73
2022/12/20 10:49:35;;;;;;;;;;;;;;;;;;4361286;32;68080;-74
2022/12/20 10:52:22;;;;;;;;;;;;;;;;;;4361146;32;59630;-74
2022/12/20 10:55:34;;;;;;;;;;;;;;;;;;4361345;32;69715;-74
2022/12/20 10:58:20;;;;;;;;;;;;;;;;;;4372842;32;70688;-74
2022/12/20 11:01:10;;;;;;;;;;;;;;;;;;4384188;32;67827;-73
2022/12/20 11:04:00;;;;;;;;;;;;;;;;;;4373757;32;71771;-74
2022/12/20 11:06:47;;;;;;;;;;;;;;;;;;4384675;32;68722;-74
2022/12/20 11:09:34;;;;;;;;;;;;;;;;;;4373500;32;69265;-75
2022/12/20 11:12:21;;;;;;;;;;;;;;;;;;4384848;32;66758;-75
2022/12/20 11:15:18;;;;;;;;;;;;;;;;;;4383969;32;71422;-74
2022/12/20 11:18:06;;;;;;;;;;;;;;;;;;4363310;32;65973;-74
2022/12/20 11:21:11;;;;;;;;;;;;;;;;;;4373502;32;68117;-75
2022/12/20 11:24:15;;;;;;;;;;;;;;;;;;4385386;32;59085;-74
2022/12/20 11:27:02;;;;;;;;;;;;;;;;;;4383611;32;70272;-73
2022/12/20 11:30:00;;;;;;;;;;;;;;;;;;4384991;32;69388;-75
2022/12/20 11:32:46;;;;;;;;;;;;;;;;;;4373232;32;68045;-74
2022/12/20 11:35:39;;;;;;;;;;;;;;;;;;4384533;32;59820;-73
2022/12/20 11:38:32;;;;;;;;;;;;;;;;;;4373265;32;69969;-75
2022/12/20 11:41:35;;;;;;;;;;;;;;;;;;4384006;32;69389;-74
2022/12/20 11:44:27;;;;;;;;;;;;;;;;;;4362687;32;67073;-74
2022/12/20 11:47:33;;;;;;;;;;;;;;;;;;4383258;32;72551;-74
2022/12/20 11:50:19;;;;;;;;;;;;;;;;;;4384956;32;66623;-73
2022/12/20 11:53:15;;;;;;;;;;;;;;;;;;4372180;32;68661;-75
2022/12/20 11:56:22;;;;;;;;;;;;;;;;;;4362807;32;58751;-74
2022/12/20 11:59:14;;;;;;;;;;;;;;;;;;4380471;32;72013;-74
2022/12/20 12:02:04;;;;;;;;;;;;;;;;;;4374516;32;66419;-73
2022/12/20 12:04:56;;;;;;;;;;;;;;;;;;4373115;32;68140;-74
2022/12/20 12:07:43;;;;;;;;;;;;;;;;;;4372853;32;59070;-74
2022/12/20 12:10:36;;;;;;;;;;;;;;;;;;4383391;32;69048;-74
2022/12/20 12:13:25;;;;;;;;;;;;;;;;;;4362609;32;69272;-76
2022/12/20 12:16:26;;;;;;;;;;;;;;;;;;4372582;32;67221;-75
2022/12/20 12:19:12;;;;;;;;;;;;;;;;;;4371961;32;69394;-75
2022/12/20 12:22:04;;;;;;;;;;;;;;;;;;4383638;32;66081;-73
2022/12/20 12:24:51;;;;;;;;;;;;;;;;;;4372339;32;69427;-75
2022/12/20 12:27:38;;;;;;;;;;;;;;;;;;4372630;32;66507;-74
2022/12/20 12:30:24;;;;;;;;;;;;;;;;;;4351058;32;71543;-75
2022/12/20 12:33:16;;;;;;;;;;;;;;;;;;4352223;32;66684;-74
2022/12/20 12:36:05;;;;;;;;;;;;;;;;;;4372581;32;67611;-74
2022/12/20 12:38:55;;;;;;;;;;;;;;;;;;4383616;32;59909;-73
2022/12/20 12:41:51;;;;;;;;;;;;;;;;;;4384389;32;69996;-73
2022/12/20 12:44:38;;;;;;;;;;;;;;;;;;4383235;32;69770;-75
2022/12/20 12:47:28;;;;;;;;;;;;;;;;;;4371546;32;68119;-74
2022/12/20 12:50:22;;;;;;;;;;;;;;;;;;4361355;32;60975;-74
2022/12/20 12:53:26;;;;;;;;;;;;;;;;;;4372263;32;69206;-74
2022/12/20 12:56:35;;;;;;;;;;;;;;;;;;4382962;32;69789;-74
2022/12/20 12:59:23;;;;;;;;;;;;;;;;;;4372298;32;67162;-75
2022/12/20 13:02:12;;;;;;;;;;;;;;;;;;4382658;32;71880;-73
2022/12/20 13:04:59;;;;;;;;;;;;;;;;;;4382785;32;65958;-74
2022/12/20 13:07:45;;;;;;;;;;;;;;;;;;4381915;32;67621;-75
2022/12/20 13:10:33;;;;;;;;;;;;;;;;;;4361335;32;60270;-74
2022/12/20 13:13:20;;;;;;;;;;;;;;;;;;4370930;32;70130;-74
2022/12/20 13:16:08;;;;;;;;;;;;;;;;;;4382739;32;66177;-74
2022/12/20 13:18:56;;;;;;;;;;;;;;;;;;4371515;32;67478;-74
2022/12/20 13:21:45;;;;;;;;;;;;;;;;;;4372235;32;59789;-74
2022/12/20 13:24:52;;;;;;;;;;;;;;;;;;4370953;32;73060;-74
2022/12/20 13:27:39;;;;;;;;;;;;;;;;;;4383594;32;69228;-74
2022/12/20 13:30:26;;;;;;;;;;;;;;;;;;4382412;32;67010;-73
2022/12/20 13:33:35;;;;;;;;;;;;;;;;;;4382078;32;71857;-74
2022/12/20 13:36:28;;;;;;;;;;;;;;;;;;4371369;32;67030;-74
2022/12/20 13:39:21;;;;;;;;;;;;;;;;;;4361092;32;69525;-75
2022/12/20 13:42:14;;;;;;;;;;;;;;;;;;4371108;32;68012;-75
2022/12/20 13:45:01;;;;;;;;;;;;;;;;;;4371436;32;72065;-75
2022/12/20 13:47:48;;;;;;;;;;;;;;;;;;4360754;32;66093;-74
2022/12/20 13:50:37;;;;;;;;;;;;;;;;;;4382293;32;68242;-75
2022/12/20 13:53:26;;;;;;;;;;;;;;;;;;4382652;32;59761;-74
2022/12/20 13:56:38;;;;;;;;;;;;;;;;;;4382062;32;69932;-75
2022/12/20 13:59:25;;;;;;;;;;;;;;;;;;4383412;32;69645;-73
2022/12/20 14:02:16;;;;;;;;;;;;;;;;;;4381977;32;66878;-73
2022/12/20 14:05:09;;;;;;;;;;;;;;;;;;4371726;32;58987;-74
2022/12/20 14:07:57;;;;;;;;;;;;;;;;;;4360130;32;69883;-74
2022/12/20 14:10:43;;;;;;;;;;;;;;;;;;4359998;32;69998;-75
2022/12/20 14:13:29;;;;;;;;;;;;;;;;;;4360065;32;67460;-74
2022/12/20 14:16:17;;;;;;;;;;;;;;;;;;4383189;32;71118;-74
2022/12/20 14:19:04;;;;;;;;;;;;;;;;;;4381848;32;65364;-74
2022/12/20 14:21:51;;;;;;;;;;;;;;;;;;4370431;32;67772;-74
2022/12/20 14:24:40;;;;;;;;;;;;;;;;;;4382103;32;59044;-74
2022/12/20 14:27:28;;;;;;;;;;;;;;;;;;4360583;32;70341;-74
2022/12/20 14:30:25;;;;;;;;;;;;;;;;;;4373318;32;65947;-75
2022/12/20 14:33:23;;;;;;;;;;;;;;;;;;4384570;32;68018;-74
2022/12/20 14:36:17;;;;;;;;;;;;;;;;;;4362592;32;58710;-75
2022/12/20 14:39:23;;;;;;;;;;;;;;;;;;4363476;32;70621;-75
2022/12/20 14:42:09;;;;;;;;;;;;;;;;;;4385479;32;69425;-73
2022/12/20 14:45:08;;;;;;;;;;;;;;;;;;4383995;32;68175;-75
2022/12/20 14:48:00;;;;;;;;;;;;;;;;;;4373791;32;70278;-75
2022/12/20 14:50:50;;;;;;;;;;;;;;;;;;4385500;32;65065;-74
2022/12/20 14:53:36;;;;;;;;;;;;;;;;;;4384542;32;67974;-73
2022/12/20 14:56:24;;;;;;;;;;;;;;;;;;4373071;32;68123;-75
2022/12/20 14:59:14;;;;;;;;;;;;;;;;;;4362828;32;71154;-75
2022/12/20 15:02:20;;;;;;;;;;;;;;;;;;4385007;32;66097;-75
2022/12/20 15:05:08;;;;;;;;;;;;;;;;;;4383654;32;68845;-74
2022/12/20 15:07:54;;;;;;;;;;;;;;;;;;4373428;32;59019;-75
2022/12/20 15:10:41;;;;;;;;;;;;;;;;;;4383854;32;70097;-74
2022/12/20 15:13:28;;;;;;;;;;;;;;;;;;4384295;32;69573;-74
2022/12/20 15:16:18;;;;;;;;;;;;;;;;;;4372401;32;68540;-74
2022/12/20 15:19:05;;;;;;;;;;;;;;;;;;4384493;32;71032;-75
2022/12/20 15:21:52;;;;;;;;;;;;;;;;;;4385225;32;70709;-74
2022/12/20 15:24:38;;;;;;;;;;;;;;;;;;4351301;32;69933;-73
2022/12/20 15:27:24;;;;;;;;;;;;;;;;;;4385258;32;67653;-74
2022/12/20 15:30:13;;;;;;;;;;;;;;;;;;4383675;32;71874;-75
2022/12/20 15:32:59;;;;;;;;;;;;;;;;;;4372567;32;65996;-75
2022/12/20 15:35:45;;;;;;;;;;;;;;;;;;4372463;32;68500;-73
2022/12/20 15:38:32;;;;;;;;;;;;;;;;;;4384651;32;59011;-74
2022/12/20 15:41:22;;;;;;;;;;;;;;;;;;4383398;32;69870;-74
2022/12/20 15:44:25;;;;;;;;;;;;;;;;;;4374310;32;68791;-75
2022/12/20 15:47:12;;;;;;;;;;;;;;;;;;4386823;32;67325;-74
2022/12/20 15:49:58;;;;;;;;;;;;;;;;;;4365813;32;59968;-75
2022/12/20 15:52:45;;;;;;;;;;;;;;;;;;4384288;32;69370;-74
2022/12/20 15:55:31;;;;;;;;;;;;;;;;;;4373184;32;69793;-75
2022/12/20 15:58:18;;;;;;;;;;;;;;;;;;4383856;32;67854;-74
2022/12/20 16:01:04;;;;;;;;;;;;;;;;;;4372313;32;71703;-75
2022/12/20 16:03:51;;;;;;;;;;;;;;;;;;4372351;32;66192;-75
2022/12/20 16:06:37;;;;;;;;;;;;;;;;;;4373054;32;67544;-75
2022/12/20 16:09:24;;;;;;;;;;;;;;;;;;4363617;32;68136;-75
2022/12/20 16:12:15;;;;;;;;;;;;;;;;;;4377261;32;71634;-75
2022/12/20 16:15:02;;;;;;;;;;;;;;;;;;4375999;32;66042;-75
2022/12/20 16:17:48;;;;;;;;;;;;;;;;;;4388114;32;67798;-74
2022/12/20 16:20:34;;;;;;;;;;;;;;;;;;4384268;32;58998;-74
2022/12/20 16:23:23;;;;;;;;;;;;;;;;;;4383711;32;68787;-74
2022/12/20 16:26:14;;;;;;;;;;;;;;;;;;4373140;32;69257;-74
2022/12/20 16:29:01;;;;;;;;;;;;;;;;;;4372906;32;67933;-74
2022/12/20 16:31:47;;;;;;;;;;;;;;;;;;4383845;32;71121;-75
2022/12/20 16:34:33;;;;;;;;;;;;;;;;;;4384556;32;69868;-74
2022/12/20 16:37:20;;;;;;;;;;;;;;;;;;4384588;32;68404;-74
2022/12/20 16:40:06;;;;;;;;;;;;;;;;;;4373016;32;67761;-75
2022/12/20 16:42:53;;;;;;;;;;;;;;;;;;4384239;32;72103;-74
2022/12/20 16:45:39;;;;;;;;;;;;;;;;;;4372513;32;65260;-74
2022/12/20 16:48:25;;;;;;;;;;;;;;;;;;4362101;32;67987;-75
2022/12/20 16:51:20;;;;;;;;;;;;;;;;;;4360894;32;60395;-75
2022/12/20 16:54:12;;;;;;;;;;;;;;;;;;4371597;32;67830;-74
2022/12/20 16:56:59;;;;;;;;;;;;;;;;;;4374124;32;69780;-74
2022/12/20 16:59:45;;;;;;;;;;;;;;;;;;4384594;32;68116;-74
2022/12/20 17:02:32;;;;;;;;;;;;;;;;;;4371460;32;60353;-74
2022/12/20 17:05:26;;;;;;;;;;;;;;;;;;4382829;32;69864;-74
2022/12/20 17:08:13;;;;;;;;;;;;;;;;;;4382167;32;67108;-75
2022/12/20 17:10:59;;;;;;;;;;;;;;;;;;4382250;32;68661;-74
2022/12/20 17:13:46;;;;;;;;;;;;;;;;;;4371459;32;72479;-74
2022/12/20 17:16:32;;;;;;;;;;;;;;;;;;4372184;32;66012;-75
2022/12/20 17:19:18;;;;;;;;;;;;;;;;;;4384100;32;67653;-74
2022/12/20 17:22:05;;;;;;;;;;;;;;;;;;4371835;32;60347;-73
2022/12/20 17:24:51;;;;;;;;;;;;;;;;;;4382402;32;71882;-75
2022/12/20 17:27:38;;;;;;;;;;;;;;;;;;4361644;32;65916;-74
2022/12/20 17:30:24;;;;;;;;;;;;;;;;;;4381963;32;67731;-75
2022/12/20 17:33:13;;;;;;;;;;;;;;;;;;4371266;32;60402;-74
2022/12/20 17:35:59;;;;;;;;;;;;;;;;;;4382625;32;69835;-75
2022/12/20 17:38:48;;;;;;;;;;;;;;;;;;4382010;32;69222;-74
2022/12/20 17:41:34;;;;;;;;;;;;;;;;;;4381891;32;67872;-75
2022/12/20 17:44:22;;;;;;;;;;;;;;;;;;4383679;32;71801;-74
2022/12/20 17:47:08;;;;;;;;;;;;;;;;;;4371226;32;66745;-74
2022/12/20 17:49:55;;;;;;;;;;;;;;;;;;4361322;32;69392;-75
2022/12/20 17:52:41;;;;;;;;;;;;;;;;;;4383740;32;67861;-74
2022/12/20 17:55:27;;;;;;;;;;;;;;;;;;4360523;32;72323;-74
2022/12/20 17:58:14;;;;;;;;;;;;;;;;;;4382483;32;66444;-74
2022/12/20 18:01:01;;;;;;;;;;;;;;;;;;4371435;32;66418;-74
2022/12/20 18:03:48;;;;;;;;;;;;;;;;;;4371879;32;59249;-74
2022/12/20 18:06:38;;;;;;;;;;;;;;;;;;4370736;32;70113;-74
2022/12/20 18:09:24;;;;;;;;;;;;;;;;;;4362184;32;69699;-75
2022/12/20 18:12:10;;;;;;;;;;;;;;;;;;4382826;32;67879;-74
2022/12/20 18:14:57;;;;;;;;;;;;;;;;;;4382589;32;59903;-74
2022/12/20 18:17:43;;;;;;;;;;;;;;;;;;4384027;32;69189;-74
2022/12/20 18:20:29;;;;;;;;;;;;;;;;;;4381750;32;69554;-73
2022/12/20 18:23:16;;;;;;;;;;;;;;;;;;4383634;32;66731;-75
2022/12/20 18:26:05;;;;;;;;;;;;;;;;;;4383088;32;72055;-75
2022/12/20 18:28:55;;;;;;;;;;;;;;;;;;4383339;32;65883;-75
2022/12/20 18:31:41;;;;;;;;;;;;;;;;;;4370881;32;68647;-73
2022/12/20 18:34:27;;;;;;;;;;;;;;;;;;4382105;32;60254;-75
2022/12/20 18:37:14;;;;;;;;;;;;;;;;;;4384581;32;71961;-74
2022/12/20 18:40:00;;;;;;;;;;;;;;;;;;4383160;32;66536;-75
2022/12/20 18:42:47;;;;;;;;;;;;;;;;;;4362253;32;66830;-74
2022/12/20 18:45:33;;;;;;;;;;;;;;;;;;4362305;32;58795;-73
2022/12/20 18:48:20;;;;;;;;;;;;;;;;;;4384775;32;70111;-73
2022/12/20 18:51:12;;;;;;;;;;;;;;;;;;4385806;32;69436;-74
2022/12/20 18:53:59;;;;;;;;;;;;;;;;;;4387404;32;67872;-75
2022/12/20 18:56:45;;;;;;;;;;;;;;;;;;4377856;32;70929;-74
2022/12/20 18:59:33;;;;;;;;;;;;;;;;;;4389450;32;65451;-77
2022/12/20 19:02:19;;;;;;;;;;;;;;;;;;4388183;32;70025;-74
2022/12/20 19:05:06;;;;;;;;;;;;;;;;;;4385474;32;67964;-74
2022/12/20 19:07:52;;;;;;;;;;;;;;;;;;4386586;32;71270;-74
2022/12/20 19:10:39;;;;;;;;;;;;;;;;;;4389281;32;64931;-75
2022/12/20 19:13:25;;;;;;;;;;;;;;;;;;4377918;32;67164;-74
2022/12/20 19:16:19;;;;;;;;;;;;;;;;;;4369225;32;60296;-74
2022/12/20 19:19:06;;;;;;;;;;;;;;;;;;4390980;32;69153;-75
2022/12/20 19:21:53;;;;;;;;;;;;;;;;;;4390034;32;68671;-74
2022/12/20 19:24:39;;;;;;;;;;;;;;;;;;4379231;32;66871;-74